Time;durP1;ratioP1;P1;durP2;ratioP2;P2;SDS_P1;SDS_P2;PMS_P1;PMS_P2;Temp;Humidity;BMP_temperature;BMP_pressure;BME280_temperature;BME280_humidity;BME280_pressure;Samples;Min_cycle;Max_cycle;Signal;HPM_P1;HPM_P2
2023/04/03 00:00:05;;;;;;;7.27;2.93;;;-0.30;1.00;;;;;;5035721;28;20320;-51
2023/04/03 00:02:30;;;;;;;4.37;2.33;;;-0.30;1.00;;;;;;5035088;28;20186;-50
2023/04/03 00:04:56;;;;;;;4.53;2.60;;;-0.30;3.10;;;;;;5036096;28;20410;-50
2023/04/03 00:07:22;;;;;;;8.40;3.13;;;-0.40;99.90;;;;;;5035615;28;20306;-50
2023/04/03 00:09:47;;;;;;;4.07;2.70;;;-0.40;59.70;;;;;;5035664;28;20187;-51
2023/04/03 00:12:13;;;;;;;15.53;3.27;;;-0.40;90.80;;;;;;5035532;28;20623;-50
2023/04/03 00:14:39;;;;;;;7.07;2.87;;;-0.40;99.90;;;;;;5035497;28;20265;-50
2023/04/03 00:17:04;;;;;;;6.90;2.97;;;-0.40;99.90;;;;;;5035574;28;20193;-50
2023/04/03 00:19:30;;;;;;;11.83;3.87;;;-0.40;99.90;;;;;;5035215;28;20418;-51
2023/04/03 00:21:56;;;;;;;4.53;2.40;;;-0.40;99.90;;;;;;5035749;28;20183;-50
2023/04/03 00:24:21;;;;;;;9.97;2.40;;;-0.40;99.90;;;;;;5035456;28;20731;-50
2023/04/03 00:26:47;;;;;;;7.43;3.10;;;-0.40;99.90;;;;;;5035469;28;20217;-52
2023/04/03 00:29:13;;;;;;;9.07;3.10;;;-0.50;99.90;;;;;;5035612;28;20183;-51
2023/04/03 00:31:38;;;;;;;12.90;3.00;;;-0.50;99.90;;;;;;5035287;28;20708;-51
2023/04/03 00:34:04;;;;;;;5.23;2.80;;;-0.50;99.90;;;;;;5034295;28;20175;-51
2023/04/03 00:36:30;;;;;;;6.83;3.80;;;-0.50;99.90;;;;;;5034389;28;20234;-50
2023/04/03 00:38:55;;;;;;;16.30;6.30;;;-0.50;99.90;;;;;;5035484;28;20592;-51
2023/04/03 00:41:21;;;;;;;6.37;4.63;;;-0.50;99.90;;;;;;5035393;28;20418;-51
2023/04/03 00:43:46;;;;;;;5.20;3.37;;;-0.60;99.90;;;;;;5035130;28;20191;-50
2023/04/03 00:46:12;;;;;;;9.57;3.80;;;-0.50;99.90;;;;;;5035271;28;20315;-50
2023/04/03 00:48:44;;;;;;;6.67;3.47;;;-0.50;99.90;;;;;;5035297;28;20275;-51
2023/04/03 00:51:14;;;;;;;7.80;3.10;;;-0.60;99.90;;;;;;5035177;28;20179;-51
2023/04/03 00:53:49;;;;;;;12.50;3.47;;;-0.60;1.00;;;;;;5035279;28;20782;-51
2023/04/03 00:56:17;;;;;;;13.47;3.60;;;-0.60;1.00;;;;;;5035164;28;20449;-51
2023/04/03 00:58:52;;;;;;;9.13;3.80;;;-0.60;1.00;;;;;;5034526;28;20443;-49
2023/04/03 01:01:22;;;;;;;5.20;2.40;;;-0.60;1.00;;;;;;5034617;28;21024;-50
2023/04/03 01:03:48;;;;;;;4.93;3.00;;;-0.60;1.00;;;;;;5034962;28;20411;-51
2023/04/03 01:06:17;;;;;;;9.60;3.20;;;-0.60;1.00;;;;;;5034946;28;20468;-50
2023/04/03 01:08:43;;;;;;;7.90;3.33;;;-0.60;1.00;;;;;;5034517;28;20184;-51
2023/04/03 01:11:09;;;;;;;9.60;3.47;;;-0.70;1.00;;;;;;5034633;28;20502;-50
2023/04/03 01:13:35;;;;;;;6.00;2.97;;;-0.70;1.00;;;;;;5034053;28;20982;-50
2023/04/03 01:16:03;;;;;;;11.10;3.03;;;-0.70;1.00;;;;;;5034705;28;20263;-50
2023/04/03 01:18:29;;;;;;;8.07;3.43;;;-0.70;1.00;;;;;;5034581;28;20175;-50
2023/04/03 01:20:55;;;;;;;4.43;2.63;;;-0.80;1.00;;;;;;5034242;28;20501;-50
2023/04/03 01:23:26;;;;;;;9.90;3.20;;;-0.80;1.00;;;;;;5034442;28;20504;-50
2023/04/03 01:25:55;;;;;;;6.40;3.17;;;-0.80;1.00;;;;;;5034351;28;20207;-50
2023/04/03 01:28:27;;;;;;;8.07;3.07;;;-0.80;1.00;;;;;;5034533;28;20494;-51
2023/04/03 01:31:27;;;;;;;8.30;3.00;;;-0.90;93.70;;;;;;5034628;28;20453;-51
2023/04/03 01:33:53;;;;;;;14.20;5.83;;;-0.90;99.90;;;;;;5034312;28;20478;-51
2023/04/03 01:36:23;;;;;;;12.73;5.67;;;-0.90;20.90;;;;;;5034212;28;20419;-50
2023/04/03 01:38:49;;;;;;;10.20;4.13;;;-0.90;29.60;;;;;;5034452;28;20748;-51
2023/04/03 01:41:16;;;;;;;12.23;4.17;;;-1.00;99.90;;;;;;5033815;28;20479;-51
2023/04/03 01:43:41;;;;;;;13.00;3.40;;;-1.00;99.90;;;;;;5033637;28;20830;-51
2023/04/03 01:46:07;;;;;;;11.37;3.80;;;-1.00;99.90;;;;;;5033664;28;20466;-51
2023/04/03 01:48:33;;;;;;;9.70;3.97;;;-1.00;99.90;;;;;;5034239;28;20298;-52
2023/04/03 01:50:59;;;;;;;8.60;3.23;;;-1.00;99.90;;;;;;5033751;28;20188;-50
2023/04/03 01:53:25;;;;;;;8.53;3.30;;;-1.00;99.90;;;;;;5033596;28;20505;-51
2023/04/03 01:55:50;;;;;;;9.47;3.37;;;-1.00;99.90;;;;;;5034080;28;20207;-51
2023/04/03 01:58:16;;;;;;;9.20;4.37;;;-1.10;1.00;;;;;;5033893;28;20190;-50
2023/04/03 02:00:42;;;;;;;10.70;4.70;;;-1.10;1.00;;;;;;5033541;28;20180;-50
2023/04/03 02:03:08;;;;;;;10.90;4.60;;;-1.10;1.00;;;;;;5033569;28;20260;-50
2023/04/03 02:05:33;;;;;;;9.97;4.33;;;-1.20;1.00;;;;;;5033671;28;20218;-50
2023/04/03 02:07:59;;;;;;;12.07;3.60;;;-1.20;1.00;;;;;;5033728;28;20523;-50
2023/04/03 02:10:25;;;;;;;11.00;3.20;;;-1.20;1.00;;;;;;5033355;28;20188;-50
2023/04/03 02:12:51;;;;;;;11.93;3.37;;;-1.20;99.90;;;;;;5033445;28;20460;-49
2023/04/03 02:15:17;;;;;;;11.03;3.77;;;-1.20;99.90;;;;;;5033601;28;20214;-50
2023/04/03 02:17:43;;;;;;;3.53;2.73;;;-1.20;99.90;;;;;;5033769;28;20306;-50
2023/04/03 02:20:09;;;;;;;8.43;3.20;;;-1.20;99.90;;;;;;5033819;28;20810;-50
2023/04/03 02:22:35;;;;;;;5.33;3.50;;;-1.20;1.00;;;;;;5033621;28;20187;-50
2023/04/03 02:25:00;;;;;;;6.93;3.83;;;-1.20;1.00;;;;;;5032755;28;20787;-50
2023/04/03 02:27:26;;;;;;;6.80;3.80;;;-1.20;99.90;;;;;;5033447;28;20478;-51
2023/04/03 02:29:52;;;;;;;7.50;3.80;;;-1.30;99.90;;;;;;5033263;28;20278;-50
2023/04/03 02:32:18;;;;;;;6.27;3.33;;;-1.30;99.90;;;;;;5033285;28;20975;-51
2023/04/03 02:34:43;;;;;;;9.90;3.30;;;-1.30;99.90;;;;;;5033419;28;20640;-51
2023/04/03 02:37:09;;;;;;;9.60;3.70;;;-1.30;1.00;;;;;;5033175;28;20184;-50
2023/04/03 02:39:35;;;;;;;10.83;3.43;;;-1.30;1.00;;;;;;5033311;28;20187;-51
2023/04/03 02:42:00;;;;;;;10.43;3.87;;;-1.30;1.00;;;;;;5032898;28;20490;-51
2023/04/03 02:44:26;;;;;;;6.70;3.13;;;-1.30;1.00;;;;;;5033362;28;20239;-50
2023/04/03 02:46:51;;;;;;;8.27;3.40;;;-1.40;1.00;;;;;;5032980;28;20207;-50
2023/04/03 02:49:17;;;;;;;9.83;3.63;;;-1.40;1.00;;;;;;5032865;28;20260;-51
2023/04/03 02:51:43;;;;;;;12.13;3.97;;;-1.40;99.90;;;;;;5033167;28;20190;-50
2023/04/03 02:54:08;;;;;;;15.03;3.73;;;-1.40;99.90;;;;;;5033276;28;20657;-50
2023/04/03 02:56:34;;;;;;;10.20;3.20;;;-1.40;99.90;;;;;;5032964;28;20179;-50
2023/04/03 02:59:00;;;;;;;6.73;3.67;;;-1.40;99.90;;;;;;5032965;28;20179;-51
2023/04/03 03:01:28;;;;;;;9.60;3.73;;;-1.40;99.90;;;;;;5033049;28;20292;-50
2023/04/03 03:03:54;;;;;;;11.63;3.60;;;-1.50;99.90;;;;;;5033147;28;20183;-51
2023/04/03 03:06:19;;;;;;;8.27;3.23;;;-1.50;99.90;;;;;;5032833;28;20519;-51
2023/04/03 03:08:45;;;;;;;10.30;3.97;;;-1.50;99.90;;;;;;5032881;28;20194;-50
2023/04/03 03:11:11;;;;;;;6.20;3.10;;;-1.60;99.90;;;;;;5032932;28;20175;-51
2023/04/03 03:13:37;;;;;;;12.27;4.03;;;-1.60;1.00;;;;;;5033064;28;20187;-51
2023/04/03 03:16:03;;;;;;;16.00;4.03;;;-1.60;1.00;;;;;;5032906;28;20538;-50
2023/04/03 03:18:29;;;;;;;11.07;4.10;;;-1.60;99.90;;;;;;5032646;28;20215;-50
2023/04/03 03:20:57;;;;;;;14.90;4.00;;;-1.60;1.00;;;;;;5032578;28;20466;-50
2023/04/03 03:23:24;;;;;;;10.20;3.90;;;-1.60;99.90;;;;;;5032836;28;20423;-51
2023/04/03 03:25:58;;;;;;;7.30;3.80;;;-1.60;1.00;;;;;;5032742;28;20459;-50
2023/04/03 03:28:24;;;;;;;11.83;3.83;;;-1.60;1.00;;;;;;5032661;28;20529;-50
2023/04/03 03:30:49;;;;;;;7.13;3.43;;;-1.70;1.00;;;;;;5032514;28;20796;-51
2023/04/03 03:33:17;;;;;;;8.67;3.70;;;-1.70;99.90;;;;;;5032656;28;20213;-50
2023/04/03 03:35:43;;;;;;;7.50;3.63;;;-1.70;1.00;;;;;;5032813;28;20242;-50
2023/04/03 03:38:08;;;;;;;16.27;3.50;;;-1.70;99.90;;;;;;5034613;28;20925;-50
2023/04/03 03:40:34;;;;;;;13.57;3.67;;;-1.70;1.00;;;;;;5036535;28;20449;-50
2023/04/03 03:43:00;;;;;;;8.37;3.47;;;-1.70;1.00;;;;;;5036478;28;20186;-50
2023/04/03 03:45:25;;;;;;;11.60;3.50;;;-1.70;1.00;;;;;;5035814;28;20667;-50
2023/04/03 03:47:51;;;;;;;5.70;3.20;;;-1.80;99.90;;;;;;5035876;28;20202;-50
2023/04/03 03:50:16;;;;;;;6.93;3.57;;;-1.80;1.00;;;;;;5036022;28;20183;-50
2023/04/03 03:52:42;;;;;;;8.17;3.10;;;-1.80;99.90;;;;;;5035977;28;20267;-50
2023/04/03 03:55:08;;;;;;;7.30;3.30;;;-1.70;99.90;;;;;;5036236;28;20219;-50
2023/04/03 03:57:33;;;;;;;17.80;4.30;;;-1.70;1.00;;;;;;5036262;28;20176;-50
2023/04/03 03:59:59;;;;;;;8.97;3.87;;;-1.70;1.70;;;;;;5036019;28;20190;-50
2023/04/03 04:02:25;;;;;;;11.13;3.80;;;-1.80;1.00;;;;;;5035944;28;20653;-51
2023/04/03 04:04:50;;;;;;;11.53;4.00;;;-1.80;1.00;;;;;;5035898;28;20176;-52
2023/04/03 04:07:16;;;;;;;13.17;3.80;;;-1.80;1.00;;;;;;5035872;28;20203;-50
2023/04/03 04:09:42;;;;;;;8.10;3.50;;;-1.80;99.90;;;;;;5035901;28;20228;-50
2023/04/03 04:12:07;;;;;;;9.73;3.67;;;-1.80;1.00;;;;;;5035552;28;20183;-50
2023/04/03 04:14:33;;;;;;;13.57;4.50;;;-1.80;1.00;;;;;;5035671;28;20180;-50
2023/04/03 04:16:58;;;;;;;10.40;3.47;;;-1.80;1.00;;;;;;5034792;28;20238;-50
2023/04/03 04:19:24;;;;;;;7.30;4.10;;;-1.80;1.00;;;;;;5035468;28;20565;-50
2023/04/03 04:21:50;;;;;;;12.37;3.90;;;-1.90;99.90;;;;;;5035844;28;20183;-50
2023/04/03 04:24:15;;;;;;;11.93;4.40;;;-1.90;1.00;;;;;;5035692;28;20218;-50
2023/04/03 04:26:41;;;;;;;9.00;3.90;;;-1.90;1.00;;;;;;5035009;28;20504;-50
2023/04/03 04:29:09;;;;;;;11.40;4.10;;;-1.90;26.00;;;;;;5035707;28;20190;-50
2023/04/03 04:31:35;;;;;;;11.27;3.93;;;-1.90;1.00;;;;;;5035554;28;20188;-50
2023/04/03 04:34:01;;;;;;;9.27;3.87;;;-1.90;1.00;;;;;;5035547;28;20512;-50
2023/04/03 04:36:26;;;;;;;10.27;4.20;;;-2.00;1.00;;;;;;5035383;28;20191;-51
2023/04/03 04:38:55;;;;;;;10.17;4.23;;;-2.00;99.90;;;;;;5035314;28;20183;-49
2023/04/03 04:41:24;;;;;;;9.37;3.73;;;-2.00;1.00;;;;;;5035137;28;20769;-51
2023/04/03 04:43:50;;;;;;;9.77;3.90;;;-2.00;56.40;;;;;;5035075;28;20429;-50
2023/04/03 04:46:17;;;;;;;11.73;3.53;;;-2.00;1.00;;;;;;5035198;28;20925;-50
2023/04/03 04:48:43;;;;;;;12.30;4.47;;;-2.10;1.00;;;;;;5034866;28;20450;-50
2023/04/03 04:51:09;;;;;;;8.27;4.00;;;-2.10;1.00;;;;;;5035166;28;20441;-50
2023/04/03 04:53:34;;;;;;;12.30;4.40;;;-2.10;1.00;;;;;;5035117;28;20186;-51
2023/04/03 04:56:00;;;;;;;14.10;4.63;;;-2.10;1.00;;;;;;5035128;28;20420;-50
2023/04/03 04:58:26;;;;;;;9.60;5.00;;;-2.10;99.90;;;;;;5034556;28;20579;-50
2023/04/03 05:01:05;;;;;;;13.60;4.63;;;-2.10;1.00;;;;;;5035021;28;20184;-50
2023/04/03 05:03:31;;;;;;;10.83;4.73;;;-2.00;99.90;;;;;;5034402;28;20183;-50
2023/04/03 05:05:57;;;;;;;12.90;4.80;;;-2.10;1.00;;;;;;5034761;28;20851;-51
2023/04/03 05:08:23;;;;;;;11.63;4.70;;;-2.00;1.00;;;;;;5034916;28;20410;-50
2023/04/03 05:10:48;;;;;;;15.73;4.50;;;-2.00;1.00;;;;;;5034745;28;20427;-49
2023/04/03 05:13:14;;;;;;;10.30;5.03;;;-2.00;1.00;;;;;;5034532;28;20195;-50
2023/04/03 05:15:40;;;;;;;12.03;4.50;;;-2.00;99.90;;;;;;5034431;28;20190;-50
2023/04/03 05:18:06;;;;;;;9.50;4.53;;;-1.90;99.90;;;;;;5034556;28;20295;-51
2023/04/03 05:20:32;;;;;;;8.13;3.90;;;-1.90;99.90;;;;;;5034715;28;20540;-49
2023/04/03 05:22:58;;;;;;;15.90;4.80;;;-1.80;1.00;;;;;;5033995;28;20191;-50
2023/04/03 05:25:23;;;;;;;7.80;4.20;;;-1.80;1.00;;;;;;5034930;28;20429;-51
2023/04/03 05:27:50;;;;;;;10.70;4.50;;;-1.80;1.00;;;;;;5034942;28;20180;-50
2023/04/03 05:30:16;;;;;;;12.20;4.77;;;-1.70;1.00;;;;;;5034419;28;20191;-50
2023/04/03 05:32:42;;;;;;;10.00;4.63;;;-1.70;1.00;;;;;;5034817;28;20410;-50
2023/04/03 05:35:08;;;;;;;9.37;4.37;;;-1.60;1.00;;;;;;5034675;28;20775;-50
2023/04/03 05:37:35;;;;;;;18.37;4.40;;;-1.50;1.00;;;;;;5034973;28;20205;-50
2023/04/03 05:40:01;;;;;;;8.80;4.83;;;-1.50;1.00;;;;;;5034446;28;20453;-50
2023/04/03 05:42:27;;;;;;;10.47;4.77;;;-1.40;1.00;;;;;;5034637;28;20450;-50
2023/04/03 05:44:52;;;;;;;12.57;4.73;;;-1.40;1.00;;;;;;5033899;28;20266;-50
2023/04/03 05:47:19;;;;;;;13.20;5.27;;;-1.30;1.00;;;;;;5034257;28;20517;-50
2023/04/03 05:49:45;;;;;;;12.90;5.10;;;-1.30;1.00;;;;;;5034624;28;20885;-50
2023/04/03 05:52:38;;;;;;;10.53;4.67;;;-1.20;1.00;;;;;;5034330;28;20682;-50
2023/04/03 05:55:04;;;;;;;7.90;4.23;;;-1.20;1.00;;;;;;5034121;28;20179;-50
2023/04/03 05:57:29;;;;;;;14.73;5.10;;;-1.10;99.90;;;;;;5033699;28;20422;-50
2023/04/03 05:59:55;;;;;;;10.90;5.20;;;-1.10;99.90;;;;;;5033413;28;20416;-50
2023/04/03 06:02:22;;;;;;;7.07;4.33;;;-1.00;3.60;;;;;;5034237;28;20183;-51
2023/04/03 06:04:48;;;;;;;9.63;5.00;;;-0.90;1.00;;;;;;5034214;28;20187;-50
2023/04/03 06:07:21;;;;;;;11.27;5.67;;;-0.80;1.00;;;;;;5033875;28;20462;-51
2023/04/03 06:09:47;;;;;;;11.80;4.90;;;-0.70;99.90;;;;;;5033905;28;20180;-50
2023/04/03 06:12:12;;;;;;;14.77;5.00;;;-0.60;1.00;;;;;;5034212;28;20419;-51
2023/04/03 06:14:38;;;;;;;14.53;5.47;;;-0.50;99.90;;;;;;5033966;28;20420;-51
2023/04/03 06:17:04;;;;;;;13.80;5.53;;;-0.40;1.00;;;;;;5033489;28;20243;-50
2023/04/03 06:19:30;;;;;;;10.87;5.57;;;-0.20;99.90;;;;;;5033915;28;20266;-52
2023/04/03 06:21:56;;;;;;;15.43;5.50;;;0.10;1.00;;;;;;5033785;28;20792;-51
2023/04/03 06:24:23;;;;;;;13.90;5.90;;;0.50;99.90;;;;;;5031953;28;20452;-51
2023/04/03 06:26:51;;;;;;;18.70;5.73;;;0.90;91.30;;;;;;5031181;28;20514;-52
2023/04/03 06:29:16;;;;;;;13.90;5.00;;;1.20;1.00;;;;;;5031615;28;20426;-51
2023/04/03 06:31:42;;;;;;;11.73;4.80;;;1.60;99.90;;;;;;5031484;28;20738;-51
2023/04/03 06:34:08;;;;;;;10.63;5.10;;;1.90;1.00;;;;;;5031326;28;20183;-50
2023/04/03 06:36:34;;;;;;;12.03;5.13;;;2.20;99.90;;;;;;5031567;28;20197;-51
2023/04/03 06:39:00;;;;;;;12.33;4.70;;;2.60;99.90;;;;;;5031344;28;20186;-51
2023/04/03 06:41:26;;;;;;;10.37;4.67;;;2.90;1.00;;;;;;5031524;28;20763;-51
2023/04/03 06:43:52;;;;;;;14.53;4.20;;;3.20;99.90;;;;;;5031452;28;20179;-51
2023/04/03 06:46:20;;;;;;;10.30;4.37;;;3.50;99.90;;;;;;5031115;28;21017;-50
2023/04/03 06:48:46;;;;;;;13.20;4.70;;;3.80;99.90;;;;;;5031164;28;20641;-52
2023/04/03 06:51:32;;;;;;;8.77;3.73;;;4.20;93.10;;;;;;5031274;28;20410;-51
2023/04/03 06:53:59;;;;;;;9.77;3.50;;;4.50;33.50;;;;;;5030825;28;20930;-52
2023/04/03 06:56:29;;;;;;;7.47;4.00;;;4.70;1.00;;;;;;5031224;28;20524;-50
2023/04/03 06:58:57;;;;;;;12.30;4.23;;;5.00;1.00;;;;;;5029139;28;20428;-50
2023/04/03 07:01:25;;;;;;;10.50;3.57;;;5.30;1.00;;;;;;5029664;28;20505;-50
2023/04/03 07:03:52;;;;;;;7.93;3.50;;;5.50;1.00;;;;;;5031161;28;20423;-50
2023/04/03 07:06:18;;;;;;;8.50;3.43;;;5.80;1.00;;;;;;5031019;28;20464;-50
2023/04/03 07:08:46;;;;;;;9.03;3.30;;;6.10;1.00;;;;;;5031308;28;20448;-51
2023/04/03 07:11:12;;;;;;;8.13;2.93;;;6.20;1.00;;;;;;5031349;28;20442;-50
2023/04/03 07:13:38;;;;;;;3.47;2.60;;;6.40;1.00;;;;;;5034288;28;20504;-50
2023/04/03 07:16:05;;;;;;;5.10;2.87;;;6.80;1.00;;;;;;5034869;28;20846;-50
2023/04/03 07:18:32;;;;;;;8.73;3.17;;;7.20;1.00;;;;;;5034999;28;20205;-50
2023/04/03 07:20:57;;;;;;;6.73;2.70;;;7.60;1.00;;;;;;5035245;28;20421;-51
2023/04/03 07:23:24;;;;;;;4.37;1.90;;;7.90;1.00;;;;;;5035094;28;20482;-52
2023/04/03 07:25:51;;;;;;;7.43;2.23;;;8.10;1.00;;;;;;5035016;28;20210;-51
2023/04/03 07:28:19;;;;;;;2.80;1.77;;;8.30;1.00;;;;;;5034645;28;20944;-51
2023/04/03 07:30:49;;;;;;;3.50;1.87;;;8.50;1.00;;;;;;5034551;28;20504;-49
2023/04/03 07:33:18;;;;;;;7.70;2.20;;;9.00;1.00;;;;;;5034874;28;20555;-51
2023/04/03 07:35:44;;;;;;;6.10;2.13;;;9.30;1.00;;;;;;5034906;28;20424;-51
2023/04/03 07:38:10;;;;;;;6.80;1.40;;;9.60;1.00;;;;;;5034426;28;20434;-50
2023/04/03 07:40:37;;;;;;;4.47;1.60;;;9.80;1.00;;;;;;5034215;28;20431;-50
2023/04/03 07:43:04;;;;;;;6.10;2.00;;;9.80;1.00;;;;;;5034536;28;20417;-50
2023/04/03 07:45:29;;;;;;;5.37;1.80;;;10.00;1.00;;;;;;5034288;28;20530;-50
2023/04/03 07:47:55;;;;;;;3.40;1.20;;;10.50;1.00;;;;;;5034326;28;20428;-50
2023/04/03 07:50:21;;;;;;;8.93;1.40;;;10.40;1.00;;;;;;5034674;28;20189;-50
2023/04/03 07:52:47;;;;;;;5.33;1.40;;;10.60;1.00;;;;;;5034389;28;20641;-50
2023/04/03 07:55:13;;;;;;;2.50;1.73;;;10.60;1.00;;;;;;5034423;28;20186;-51
2023/04/03 07:57:38;;;;;;;4.53;1.50;;;10.70;1.00;;;;;;5034328;28;21011;-50
2023/04/03 08:00:05;;;;;;;4.43;1.37;;;10.90;1.00;;;;;;5034672;28;20187;-49
2023/04/03 08:02:31;;;;;;;2.50;1.40;;;11.20;1.00;;;;;;5034076;28;20260;-51
2023/04/03 08:04:58;;;;;;;4.70;1.53;;;11.40;1.00;;;;;;5035148;28;20417;-50
2023/04/03 08:07:24;;;;;;;3.30;1.40;;;11.80;1.00;;;;;;5035003;28;20453;-50
2023/04/03 08:09:50;;;;;;;5.60;1.67;;;12.20;1.00;;;;;;5035531;28;20495;-50
2023/04/03 08:12:16;;;;;;;7.33;1.57;;;12.40;1.00;;;;;;5035737;28;20420;-49
2023/04/03 08:14:42;;;;;;;3.10;1.40;;;12.70;1.00;;;;;;5035869;28;20413;-50
2023/04/03 08:17:11;;;;;;;5.93;1.60;;;12.60;1.00;;;;;;5036256;28;20820;-50
2023/04/03 08:19:37;;;;;;;5.73;1.80;;;12.60;1.00;;;;;;5036283;28;20277;-50
2023/04/03 08:22:03;;;;;;;7.27;1.40;;;12.90;1.00;;;;;;5036237;28;20506;-50
2023/04/03 08:24:29;;;;;;;3.73;1.67;;;12.80;1.00;;;;;;5035282;28;20970;-50
2023/04/03 08:26:55;;;;;;;4.33;1.27;;;13.00;1.00;;;;;;5035755;28;20547;-51
2023/04/03 08:29:21;;;;;;;3.00;1.37;;;13.40;1.00;;;;;;5035957;28;20317;-50
2023/04/03 08:31:48;;;;;;;4.27;1.40;;;13.60;1.00;;;;;;5035961;28;20336;-50
2023/04/03 08:34:14;;;;;;;8.03;1.30;;;13.70;1.00;;;;;;5036213;28;20190;-50
2023/04/03 08:36:40;;;;;;;2.57;1.27;;;13.70;1.00;;;;;;5035880;28;20421;-50
2023/04/03 08:39:06;;;;;;;2.40;1.40;;;13.70;1.00;;;;;;5035579;28;20265;-50
2023/04/03 08:41:40;;;;;;;3.83;1.60;;;13.80;1.00;;;;;;5035957;28;20191;-50
2023/04/03 08:44:28;;;;;;;2.13;1.53;;;13.40;1.00;;;;;;5035469;28;20479;-49
2023/04/03 08:46:58;;;;;;;5.23;1.60;;;13.50;1.00;;;;;;5035842;28;20467;-51
2023/04/03 08:49:40;;;;;;;6.40;1.57;;;13.70;1.00;;;;;;5035636;28;20515;-50
2023/04/03 08:52:12;;;;;;;4.00;1.43;;;13.90;1.00;;;;;;5035710;28;20402;-51
2023/04/03 08:55:00;;;;;;;1.90;1.47;;;13.70;1.00;;;;;;5035727;28;20417;-50
2023/04/03 08:57:34;;;;;;;4.70;1.40;;;13.50;1.00;;;;;;5035511;28;20466;-50
2023/04/03 09:00:16;;;;;;;2.40;1.33;;;13.60;1.00;;;;;;5035323;28;20530;-50
2023/04/03 09:02:51;;;;;;;4.40;1.20;;;13.70;1.00;;;;;;5035105;28;20404;-50
2023/04/03 09:05:20;;;;;;;4.23;1.63;;;14.10;1.00;;;;;;5035686;28;20408;-50
2023/04/03 09:08:23;;;;;;;3.00;1.70;;;14.00;1.00;;;;;;5035040;28;20460;-50
2023/04/03 09:11:00;;;;;;;3.30;1.27;;;14.10;1.00;;;;;;5033563;28;20939;-51
2023/04/03 09:13:54;;;;;;;1.77;1.27;;;14.50;1.00;;;;;;5035198;28;20880;-51
2023/04/03 09:16:26;;;;;;;4.70;1.60;;;14.50;1.00;;;;;;5034907;28;20463;-50
2023/04/03 09:19:05;;;;;;;3.10;1.50;;;14.30;1.00;;;;;;5035231;28;20454;-51
2023/04/03 09:21:38;;;;;;;3.07;1.17;;;13.80;1.00;;;;;;5034987;28;20431;-50
2023/04/03 09:24:07;;;;;;;1.83;1.47;;;13.60;1.00;;;;;;5034908;28;20815;-51
2023/04/03 09:26:54;;;;;;;4.23;1.60;;;13.70;1.00;;;;;;5034711;28;20515;-51
2023/04/03 09:29:23;;;;;;;4.37;1.43;;;13.80;1.00;;;;;;5034688;28;20524;-51
2023/04/03 09:31:54;;;;;;;5.17;1.57;;;13.60;1.00;;;;;;5034488;28;20927;-51
2023/04/03 09:34:30;;;;;;;1.73;1.30;;;13.60;1.00;;;;;;5034304;28;20414;-50
2023/04/03 09:36:57;;;;;;;7.00;1.50;;;13.00;1.00;;;;;;5034087;28;20416;-51
2023/04/03 09:39:27;;;;;;;2.17;1.13;;;12.60;1.00;;;;;;5034676;28;20421;-51
2023/04/03 09:42:15;;;;;;;3.17;1.47;;;12.50;1.00;;;;;;5034267;28;20772;-51
2023/04/03 09:44:41;;;;;;;1.73;0.97;;;12.60;1.00;;;;;;5034310;28;20815;-50
2023/04/03 09:47:23;;;;;;;3.30;1.10;;;12.20;1.00;;;;;;5034014;28;20475;-50
2023/04/03 09:49:48;;;;;;;2.63;1.50;;;11.90;1.00;;;;;;5034225;28;20978;-50
2023/04/03 09:52:25;;;;;;;2.60;1.10;;;11.50;1.00;;;;;;5034350;28;20496;-50
2023/04/03 09:54:51;;;;;;;2.40;1.17;;;10.60;1.00;;;;;;5034352;28;20193;-50
2023/04/03 09:57:17;;;;;;;2.80;1.17;;;10.20;1.00;;;;;;5034440;28;20421;-50
2023/04/03 09:59:59;;;;;;;1.73;1.07;;;10.20;1.00;;;;;;5034114;28;20539;-51
2023/04/03 10:02:34;;;;;;;1.53;1.10;;;10.40;1.00;;;;;;5033822;28;20470;-53
2023/04/03 10:04:59;;;;;;;2.80;1.30;;;10.50;1.00;;;;;;5034180;28;20421;-50
2023/04/03 10:07:30;;;;;;;4.37;1.20;;;10.70;1.00;;;;;;5034212;28;20789;-51
2023/04/03 10:10:25;;;;;;;4.20;1.37;;;10.70;1.00;;;;;;5033900;28;20725;-50
2023/04/03 10:13:05;;;;;;;2.57;1.07;;;10.60;1.00;;;;;;5033649;28;20490;-50
2023/04/03 10:15:41;;;;;;;4.70;1.40;;;10.50;1.00;;;;;;5034134;28;20412;-51
2023/04/03 10:18:22;;;;;;;3.33;1.20;;;10.40;1.00;;;;;;5033930;28;20750;-50
2023/04/03 10:20:51;;;;;;;3.07;1.30;;;10.40;1.00;;;;;;5034066;28;20420;-50
2023/04/03 10:23:41;;;;;;;2.80;1.80;;;10.60;1.00;;;;;;5034039;28;20425;-50
2023/04/03 10:26:39;;;;;;;1.90;1.10;;;11.00;1.00;;;;;;5033467;28;20485;-50
2023/04/03 10:29:16;;;;;;;2.43;1.30;;;11.40;1.00;;;;;;5033726;28;20408;-50
2023/04/03 10:31:45;;;;;;;2.90;1.27;;;11.50;1.00;;;;;;5033652;28;20410;-50
2023/04/03 10:34:31;;;;;;;2.83;1.43;;;11.00;1.00;;;;;;5033727;28;20508;-50
2023/04/03 10:37:16;;;;;;;2.30;1.13;;;11.10;1.00;;;;;;5033808;28;21185;-50
2023/04/03 10:39:56;;;;;;;2.60;1.20;;;11.30;1.00;;;;;;5033399;28;20500;-51
2023/04/03 10:43:03;;;;;;;2.63;1.03;;;11.50;1.00;;;;;;5033690;28;20405;-49
2023/04/03 10:45:43;;;;;;;3.60;1.10;;;12.10;1.00;;;;;;5033234;28;20985;-50
2023/04/03 10:48:09;;;;;;;1.30;1.00;;;12.70;1.00;;;;;;5033413;28;20787;-49
2023/04/03 10:50:43;;;;;;;2.17;1.00;;;12.80;1.00;;;;;;5033378;28;20429;-49
2023/04/03 10:53:17;;;;;;;1.67;1.07;;;13.80;1.00;;;;;;5033695;28;20227;-49
2023/04/03 10:56:02;;;;;;;2.83;1.27;;;14.80;1.00;;;;;;5033382;28;20500;-50
2023/04/03 10:58:38;;;;;;;2.33;1.40;;;15.10;1.00;;;;;;5033500;28;20422;-50
2023/04/03 11:01:11;;;;;;;3.07;1.53;;;15.70;1.00;;;;;;5033262;28;20881;-50
2023/04/03 11:03:49;;;;;;;5.10;1.27;;;16.00;1.00;;;;;;5032721;28;20408;-55
2023/04/03 11:06:17;;;;;;;6.20;1.50;;;15.50;1.00;;;;;;5033686;28;20456;-50
2023/04/03 11:09:21;;;;;;;4.63;1.50;;;14.50;1.00;;;;;;5033353;28;20546;-50
2023/04/03 11:11:49;;;;;;;1.93;1.00;;;14.60;1.00;;;;;;5032224;28;20440;-50
2023/04/03 11:14:31;;;;;;;2.50;1.30;;;15.20;1.00;;;;;;5032774;28;20416;-50
2023/04/03 11:17:17;;;;;;;4.20;1.57;;;15.40;1.00;;;;;;5033053;28;20888;-51
2023/04/03 11:19:57;;;;;;;5.40;1.20;;;15.00;1.00;;;;;;5033272;28;20462;-51
2023/04/03 11:22:37;;;;;;;1.80;1.20;;;15.50;1.00;;;;;;5033075;28;20448;-51
2023/04/03 11:25:11;;;;;;;6.30;1.73;;;16.00;1.00;;;;;;5033082;28;20419;-50
2023/04/03 11:27:49;;;;;;;4.03;1.60;;;15.40;1.00;;;;;;5033219;28;20815;-50
2023/04/03 11:30:34;;;;;;;3.43;1.63;;;14.00;1.00;;;;;;5033248;28;20475;-50
2023/04/03 11:33:20;;;;;;;3.13;1.50;;;13.50;1.00;;;;;;5032995;28;20433;-49
2023/04/03 11:35:49;;;;;;;3.60;1.30;;;13.10;1.00;;;;;;5031490;28;20523;-50
2023/04/03 11:38:29;;;;;;;3.43;1.60;;;13.80;1.00;;;;;;5033019;28;20994;-50
2023/04/03 11:40:56;;;;;;;3.33;1.33;;;14.90;1.00;;;;;;5032972;28;20412;-50
2023/04/03 11:43:29;;;;;;;4.30;1.40;;;15.60;1.00;;;;;;5033137;28;20417;-51
2023/04/03 11:45:59;;;;;;;5.30;1.70;;;15.60;1.00;;;;;;5032855;28;20562;-51
2023/04/03 11:48:33;;;;;;;5.47;1.50;;;16.30;1.00;;;;;;5032773;28;20429;-51
2023/04/03 11:51:01;;;;;;;5.90;1.47;;;16.00;1.00;;;;;;5032997;28;20481;-50
2023/04/03 11:53:31;;;;;;;3.07;1.47;;;15.10;1.00;;;;;;5033064;28;20508;-51
2023/04/03 11:55:58;;;;;;;2.43;1.53;;;13.90;1.00;;;;;;5033107;28;20448;-50
2023/04/03 11:58:34;;;;;;;4.60;1.50;;;13.00;1.00;;;;;;5034290;28;20421;-50
2023/04/03 12:01:03;;;;;;;2.33;1.30;;;12.50;1.00;;;;;;5036653;28;20429;-50
2023/04/03 12:03:39;;;;;;;2.70;1.40;;;12.20;1.00;;;;;;5036415;28;20908;-52
2023/04/03 12:06:05;;;;;;;3.70;1.20;;;12.00;1.00;;;;;;5036301;28;20460;-49
2023/04/03 12:08:40;;;;;;;3.90;1.33;;;12.60;1.00;;;;;;5035965;28;20478;-50
2023/04/03 12:11:08;;;;;;;2.50;1.03;;;13.80;1.00;;;;;;5036292;28;20415;-51
2023/04/03 12:13:35;;;;;;;3.73;1.30;;;14.20;1.00;;;;;;5036109;28;20417;-50
2023/04/03 12:16:03;;;;;;;5.50;1.23;;;14.30;1.00;;;;;;5036540;28;20421;-50
2023/04/03 12:18:53;;;;;;;1.57;0.90;;;14.30;1.00;;;;;;5036066;28;20420;-51
2023/04/03 12:21:29;;;;;;;1.20;1.07;;;14.40;1.00;;;;;;5035814;28;20404;-50
2023/04/03 12:24:09;;;;;;;2.30;1.37;;;15.00;1.00;;;;;;5036176;28;20885;-50
2023/04/03 12:26:56;;;;;;;3.43;1.60;;;14.80;1.00;;;;;;5035639;28;20464;-50
2023/04/03 12:29:32;;;;;;;2.30;1.20;;;14.10;1.00;;;;;;5035635;28;20425;-50
2023/04/03 12:32:07;;;;;;;5.10;1.90;;;13.10;1.00;;;;;;5035965;28;20413;-50
2023/04/03 12:34:57;;;;;;;4.90;1.90;;;13.30;1.00;;;;;;5035848;28;20773;-49
2023/04/03 12:37:53;;;;;;;5.70;2.00;;;13.20;1.00;;;;;;5036095;28;20428;-50
2023/04/03 12:40:52;;;;;;;2.30;1.50;;;13.10;1.00;;;;;;5035571;28;20812;-50
2023/04/03 12:43:33;;;;;;;3.20;1.90;;;12.60;1.00;;;;;;5035340;28;20782;-50
2023/04/03 12:46:28;;;;;;;3.00;1.37;;;12.80;1.00;;;;;;5035574;28;20546;-50
2023/04/03 12:48:57;;;;;;;3.47;1.10;;;13.20;1.00;;;;;;5034416;28;20476;-52
2023/04/03 12:51:29;;;;;;;1.63;1.13;;;13.00;1.00;;;;;;5035378;28;20416;-53
2023/04/03 12:54:01;;;;;;;3.70;1.27;;;13.50;1.00;;;;;;5035386;28;20432;-51
2023/04/03 12:56:31;;;;;;;3.70;1.50;;;13.10;1.00;;;;;;5035547;28;20445;-51
2023/04/03 12:59:26;;;;;;;2.70;1.53;;;13.00;1.00;;;;;;5034991;28;20432;-53
2023/04/03 13:01:57;;;;;;;2.90;1.40;;;13.60;1.00;;;;;;5035407;28;20493;-51
2023/04/03 13:04:23;;;;;;;1.90;1.40;;;14.60;1.00;;;;;;5035024;28;20433;-51
2023/04/03 13:06:49;;;;;;;2.07;1.30;;;14.90;1.00;;;;;;5035320;28;20542;-51